Time;durP1;ratioP1;P1;durP2;ratioP2;P2;SDS_P1;SDS_P2;PMS_P1;PMS_P2;Temp;Humidity;BMP_temperature;BMP_pressure;BME280_temperature;BME280_humidity;BME280_pressure;Samples;Min_cycle;Max_cycle;Signal;HPM_P1;HPM_P2
2021/07/14 00:01:47;;;;;;;9.28;6.00;;;;;;;21.80;71.04;100742.36;1770705;80;22021;-58
2021/07/14 00:04:52;;;;;;;11.70;6.58;;;;;;;21.73;71.14;100743.00;1771521;79;21351;-57
2021/07/14 00:07:57;;;;;;;13.08;6.22;;;;;;;21.67;70.51;100746.75;1770931;80;21354;-57
2021/07/14 00:11:02;;;;;;;11.48;6.55;;;;;;;21.64;69.34;100744.44;1770966;80;21283;-57
2021/07/14 00:17:41;;;;;;;13.72;6.67;;;;;;;21.66;68.06;100746.42;1770791;81;21194;-57
2021/07/14 00:24:00;;;;;;;17.25;7.33;;;;;;;21.69;67.96;100740.37;1770810;81;21178;-57
2021/07/14 00:27:08;;;;;;;13.20;6.55;;;;;;;21.68;67.69;100741.47;1771077;80;21232;-58
2021/07/14 00:30:25;;;;;;;15.95;7.35;;;;;;;21.66;67.78;100740.84;1770769;80;21200;-59
2021/07/14 00:33:29;;;;;;;12.20;6.58;;;;;;;21.64;67.64;100743.05;1770994;81;21193;-57
2021/07/14 00:36:36;;;;;;;11.85;6.58;;;;;;;21.61;67.55;100740.71;1771072;80;21253;-58
2021/07/14 00:39:41;;;;;;;11.45;6.08;;;;;;;21.61;67.51;100739.88;1770982;81;21205;-58
2021/07/14 00:42:48;;;;;;;13.25;6.12;;;;;;;21.61;67.31;100745.45;1770865;80;21216;-58
2021/07/14 00:45:54;;;;;;;12.70;6.30;;;;;;;21.57;66.93;100740.90;1764025;81;21239;-59
2021/07/14 00:49:03;;;;;;;12.28;6.03;;;;;;;21.53;66.79;100754.16;1764169;81;21236;-57
2021/07/14 00:52:08;;;;;;;10.82;6.83;;;;;;;21.49;66.53;100759.34;1770902;81;21193;-58
2021/07/14 00:55:15;;;;;;;9.13;5.90;;;;;;;21.45;66.54;100762.31;1770713;81;21196;-58
2021/07/14 00:58:20;;;;;;;14.38;6.47;;;;;;;21.45;66.58;100762.31;1770725;81;21271;-58
2021/07/14 01:01:26;;;;;;;13.28;5.97;;;;;;;21.43;66.27;100764.48;1770825;81;21181;-58
2021/07/14 01:04:39;;;;;;;11.40;6.40;;;;;;;21.42;66.19;100766.12;1770768;81;21205;-57
2021/07/14 01:08:03;;;;;;;13.80;7.10;;;;;;;21.37;66.00;100765.97;1763055;81;21193;-58
2021/07/14 01:11:19;;;;;;;;;;;;;;;21.26;66.36;100761.20;1773541;80;21276;-57
2021/07/14 01:14:35;;;;;;;13.25;7.97;;;;;;;21.16;66.71;100765.95;1770646;80;20241;-57
2021/07/14 01:17:40;;;;;;;13.53;7.50;;;;;;;21.12;67.05;100771.66;1770048;80;21271;-56
2021/07/14 01:20:57;;;;;;;12.73;8.00;;;;;;;21.10;67.19;100771.07;1770931;80;21208;-57
2021/07/14 01:24:24;;;;;;;11.78;7.50;;;;;;;21.09;67.36;100761.56;1771445;80;21193;-57
2021/07/14 01:27:34;;;;;;;15.08;7.62;;;;;;;21.05;67.35;100765.35;1770672;80;21260;-58
2021/07/14 01:30:36;;;;;;;12.93;6.47;;;;;;;20.99;67.13;100762.13;1771219;80;21177;-58
2021/07/14 01:33:46;;;;;;;10.95;6.50;;;;;;;20.92;67.71;100759.91;1771146;80;21216;-58
2021/07/14 01:36:52;;;;;;;12.90;6.65;;;;;;;20.84;67.56;100761.63;1771133;80;21200;-57
2021/07/14 01:39:59;;;;;;;11.97;6.20;;;;;;;20.76;67.62;100761.41;1771020;80;21690;-59
2021/07/14 01:43:08;;;;;;;12.63;6.15;;;;;;;20.74;67.63;100755.22;1770720;80;21224;-59
2021/07/14 01:46:15;;;;;;;9.63;5.53;;;;;;;20.75;67.28;100763.89;1771092;80;21343;-59
2021/07/14 01:49:24;;;;;;;7.90;5.33;;;;;;;20.72;67.20;100766.28;1771241;80;21208;-58
2021/07/14 01:52:34;;;;;;;13.03;5.50;;;;;;;20.68;67.24;100767.81;1771076;80;21269;-59
2021/07/14 01:55:41;;;;;;;13.28;6.00;;;;;;;20.62;67.51;100772.92;1763026;80;21379;-58
2021/07/14 01:58:54;;;;;;;16.25;6.37;;;;;;;20.57;67.58;100765.80;1770950;80;21244;-57
2021/07/14 02:02:00;;;;;;;8.63;6.08;;;;;;;20.51;67.67;100768.98;1771289;80;21204;-59
2021/07/14 02:05:06;;;;;;;13.58;5.62;;;;;;;20.48;67.60;100772.77;1762395;81;21429;-56
2021/07/14 02:08:13;;;;;;;10.60;5.95;;;;;;;20.47;67.47;100773.30;1770298;80;21182;-57
2021/07/14 02:11:18;;;;;;;22.35;7.28;;;;;;;20.50;67.51;100780.34;1771043;80;21216;-57
2021/07/14 02:14:28;;;;;;;18.82;5.67;;;;;;;20.50;67.31;100777.00;1770759;80;21209;-57
2021/07/14 02:17:36;;;;;;;30.97;6.33;;;;;;;20.51;67.53;100770.91;1771156;80;21314;-57
2021/07/14 02:20:42;;;;;;;710.60;52.58;;;;;;;20.51;67.55;100782.89;1771043;80;21249;-57
2021/07/14 02:23:49;;;;;;;41.18;7.72;;;;;;;20.50;67.33;100774.78;1771189;80;21256;-57
2021/07/14 02:26:57;;;;;;;71.10;8.85;;;;;;;20.45;67.54;100778.27;1771487;79;21192;-56
2021/07/14 02:30:04;;;;;;;16.55;5.40;;;;;;;20.41;67.93;100774.75;1770893;81;21194;-57
2021/07/14 02:33:17;;;;;;;17.55;5.67;;;;;;;20.45;67.94;100776.01;1770777;81;21209;-57
2021/07/14 02:36:21;;;;;;;15.90;5.00;;;;;;;20.50;68.02;100781.73;1771036;80;22265;-56
2021/07/14 02:39:28;;;;;;;10.93;4.47;;;;;;;20.55;68.23;100781.34;1770830;80;21208;-57
2021/07/14 02:42:36;;;;;;;10.43;4.60;;;;;;;20.52;68.05;100788.76;1770779;81;21216;-58
2021/07/14 02:45:45;;;;;;;9.78;4.90;;;;;;;20.53;68.08;100792.41;1770913;80;21189;-58
2021/07/14 02:48:52;;;;;;;10.23;4.35;;;;;;;20.54;67.95;100794.09;1771189;80;21340;-57
2021/07/14 02:51:59;;;;;;;10.40;4.67;;;;;;;20.54;67.71;100785.74;1770681;81;21189;-59
2021/07/14 02:55:06;;;;;;;11.15;4.62;;;;;;;20.53;67.43;100784.05;1770958;80;21321;-58
2021/07/14 02:58:14;;;;;;;10.38;4.72;;;;;;;20.54;67.28;100789.91;1770636;81;21280;-58
2021/07/14 03:01:21;;;;;;;10.13;4.70;;;;;;;20.56;67.52;100780.80;1770819;81;21259;-57
2021/07/14 03:04:27;;;;;;;10.38;4.95;;;;;;;20.62;67.28;100788.22;1770969;80;21213;-58
2021/07/14 03:07:33;;;;;;;10.18;4.75;;;;;;;20.70;67.42;100785.14;1771014;80;21740;-53
2021/07/14 03:10:39;;;;;;;11.25;4.70;;;;;;;20.73;67.33;100788.84;1770909;81;21243;-57
2021/07/14 03:13:45;;;;;;;8.45;4.40;;;;;;;20.75;67.23;100790.86;1770916;81;21220;-57
2021/07/14 03:16:53;;;;;;;11.70;4.20;;;;;;;20.77;67.14;100790.09;1770871;81;21232;-56
2021/07/14 03:20:00;;;;;;;11.73;4.40;;;;;;;20.82;66.75;100788.83;1770931;79;21228;-56
2021/07/14 03:23:06;;;;;;;11.45;4.17;;;;;;;20.94;66.80;100797.26;1771193;80;21363;-59
2021/07/14 03:26:12;;;;;;;6.30;3.83;;;;;;;21.05;66.31;100802.08;1770803;80;21240;-56
2021/07/14 03:29:19;;;;;;;10.63;4.50;;;;;;;21.12;65.91;100806.47;1771190;80;21232;-60
2021/07/14 03:32:25;;;;;;;11.73;4.67;;;;;;;21.13;65.32;100805.41;1771309;80;21343;-60
2021/07/14 03:35:30;;;;;;;18.35;4.75;;;;;;;21.15;65.38;100806.56;1771813;80;21857;-59
2021/07/14 03:38:36;;;;;;;8.43;4.62;;;;;;;21.15;65.63;100809.34;1770828;80;21785;-59
2021/07/14 03:41:41;;;;;;;8.98;3.77;;;;;;;21.22;65.73;100810.95;1771071;81;21359;-59
2021/07/14 03:44:49;;;;;;;8.83;4.83;;;;;;;21.32;65.24;100809.00;1771115;81;21201;-62
2021/07/14 03:48:01;;;;;;;12.53;4.97;;;;;;;21.40;65.20;100809.53;1771110;81;21229;-63
2021/07/14 03:51:08;;;;;;;12.07;4.50;;;;;;;21.48;65.11;100816.70;1771650;80;21401;-58
2021/07/14 03:54:19;;;;;;;12.35;4.42;;;;;;;21.55;64.92;100816.08;1771236;79;21363;-59
2021/07/14 03:57:29;;;;;;;10.90;4.60;;;;;;;21.63;64.83;100819.89;1771397;79;21236;-60
2021/07/14 04:00:34;;;;;;;11.38;4.35;;;;;;;21.73;64.38;100823.83;1770959;80;21216;-60
2021/07/14 04:03:40;;;;;;;10.78;4.28;;;;;;;21.79;64.70;100818.72;1770934;81;21193;-61
2021/07/14 04:06:45;;;;;;;15.25;5.03;;;;;;;21.89;64.54;100825.97;1770797;81;21236;-61
2021/07/14 04:09:54;;;;;;;12.28;5.05;;;;;;;21.96;64.17;100832.27;1769973;80;21224;-60
2021/07/14 04:12:59;;;;;;;12.70;4.70;;;;;;;22.05;64.21;100834.18;1771031;81;21193;-60
2021/07/14 04:16:05;;;;;;;11.55;4.53;;;;;;;22.13;64.11;100826.86;1770892;81;21895;-60
2021/07/14 04:19:11;;;;;;;13.25;4.70;;;;;;;22.23;64.19;100825.16;1770853;81;21299;-61
2021/07/14 04:22:19;;;;;;;13.58;4.67;;;;;;;22.36;64.07;100826.87;1770759;81;21181;-60
2021/07/14 04:25:25;;;;;;;11.50;4.42;;;;;;;22.50;63.69;100823.31;1770736;80;21229;-61
2021/07/14 04:28:33;;;;;;;15.65;4.92;;;;;;;22.62;63.36;100831.16;1770909;81;21315;-61
2021/07/14 04:31:41;;;;;;;8.80;4.40;;;;;;;22.75;62.82;100828.12;1771118;81;21188;-61
2021/07/14 04:34:46;;;;;;;13.80;4.25;;;;;;;22.87;62.12;100826.15;1770755;81;21228;-63
2021/07/14 04:37:53;;;;;;;8.33;3.98;;;;;;;22.97;61.84;100822.19;1770893;81;21240;-61
2021/07/14 04:41:00;;;;;;;11.73;4.78;;;;;;;23.06;61.77;100827.16;1771040;80;21208;-62
2021/07/14 04:44:07;;;;;;;16.02;5.78;;;;;;;23.17;61.84;100827.67;1771008;80;21240;-59
2021/07/14 04:47:15;;;;;;;13.28;4.92;;;;;;;23.29;61.07;100830.47;1771352;80;21260;-60
2021/07/14 04:50:22;;;;;;;10.32;3.87;;;;;;;23.40;60.16;100835.17;1771565;80;21757;-60
2021/07/14 04:53:31;;;;;;;14.75;4.53;;;;;;;23.51;59.86;100830.08;1770655;80;21276;-60
2021/07/14 04:56:36;;;;;;;14.75;4.05;;;;;;;23.64;58.61;100838.17;1770542;80;21777;-61
2021/07/14 04:59:43;;;;;;;14.03;4.08;;;;;;;23.75;58.39;100835.88;1777244;79;21184;-59
2021/07/14 05:02:49;;;;;;;17.75;5.08;;;;;;;23.87;58.15;100833.84;1799504;79;21255;-57
2021/07/14 05:05:59;;;;;;;11.40;4.00;;;;;;;24.01;57.41;100838.59;1798339;79;21177;-60
2021/07/14 05:09:09;;;;;;;15.38;3.90;;;;;;;24.12;57.26;100845.52;1791876;79;21410;-60
2021/07/14 05:12:15;;;;;;;9.55;3.72;;;;;;;24.23;57.22;100836.20;1800257;77;21224;-59
2021/07/14 05:15:22;;;;;;;6.70;3.40;;;;;;;24.33;57.25;100840.58;1801412;79;21328;-58
2021/07/14 05:18:27;;;;;;;18.48;3.58;;;;;;;24.45;56.92;100842.73;1801963;79;22134;-59
2021/07/14 05:21:35;;;;;;;7.03;3.52;;;;;;;24.58;57.09;100847.13;1802393;79;21696;-60
2021/07/14 05:24:42;;;;;;;5.90;3.47;;;;;;;24.67;56.81;100849.27;1802496;79;21299;-60
2021/07/14 05:27:47;;;;;;;10.93;3.00;;;;;;;24.80;56.05;100847.52;1802036;79;21829;-62
2021/07/14 05:30:54;;;;;;;6.15;3.22;;;;;;;24.90;55.16;100846.27;1802002;79;21336;-61
2021/07/14 05:34:02;;;;;;;4.30;2.83;;;;;;;25.00;54.56;100835.22;1802061;79;21865;-61
2021/07/14 05:37:08;;;;;;;10.63;3.17;;;;;;;25.12;53.68;100841.25;1802123;79;21393;-60
2021/07/14 05:40:16;;;;;;;12.40;3.15;;;;;;;25.22;53.13;100835.76;1802228;79;21339;-62
2021/07/14 05:43:21;;;;;;;14.85;3.20;;;;;;;25.32;53.08;100834.50;1787566;79;21837;-61
2021/07/14 05:46:28;;;;;;;7.78;2.83;;;;;;;25.42;52.43;100837.47;1802816;79;21856;-60
2021/07/14 05:49:33;;;;;;;9.73;3.12;;;;;;;25.50;52.31;100836.44;1802596;79;21205;-60
2021/07/14 05:52:43;;;;;;;9.20;3.00;;;;;;;25.59;51.70;100836.28;1802821;79;21212;-61
2021/07/14 05:55:52;;;;;;;4.17;2.37;;;;;;;25.68;51.51;100831.03;1802752;79;21332;-57
2021/07/14 05:58:59;;;;;;;7.97;2.67;;;;;;;25.76;51.01;100831.41;1802180;79;21399;-58
2021/07/14 06:02:05;;;;;;;5.35;2.47;;;;;;;25.84;50.73;100826.73;1802135;79;21343;-58
2021/07/14 06:05:13;;;;;;;8.68;2.70;;;;;;;25.95;50.93;100833.28;1802166;79;21677;-57
2021/07/14 06:08:18;;;;;;;10.55;3.27;;;;;;;26.03;50.51;100827.22;1801890;79;21398;-57
2021/07/14 06:11:24;;;;;;;12.07;2.90;;;;;;;26.12;50.78;100822.80;1800303;78;21394;-59
2021/07/14 06:14:31;;;;;;;9.23;3.27;;;;;;;26.21;51.19;100822.05;1803462;79;21426;-58
2021/07/14 06:17:37;;;;;;;8.65;2.80;;;;;;;26.29;50.99;100824.36;1779930;79;21452;-57
2021/07/14 06:20:45;;;;;;;11.22;3.10;;;;;;;26.37;50.57;100820.20;1786349;79;21212;-57
2021/07/14 06:23:52;;;;;;;9.93;2.83;;;;;;;26.48;50.51;100821.42;1786451;79;21912;-59
2021/07/14 06:26:59;;;;;;;4.92;2.85;;;;;;;26.57;50.29;100817.57;1764417;79;21220;-58
2021/07/14 06:30:12;;;;;;;7.70;2.35;;;;;;;26.69;50.45;100818.23;1785023;79;21205;-58
2021/07/14 06:33:20;;;;;;;7.40;2.83;;;;;;;26.78;49.93;100818.03;1781306;79;21713;-58
2021/07/14 06:36:26;;;;;;;6.70;2.50;;;;;;;26.87;49.57;100819.20;1791295;79;21706;-59
2021/07/14 06:39:33;;;;;;;4.67;2.30;;;;;;;26.97;49.22;100818.41;1779222;79;21201;-59
2021/07/14 06:42:42;;;;;;;7.85;2.77;;;;;;;27.07;48.10;100820.71;1770211;80;21259;-58
2021/07/14 06:45:52;;;;;;;6.80;2.40;;;;;;;27.19;48.04;100824.16;1774730;79;21201;-58
2021/07/14 06:48:59;;;;;;;7.42;2.50;;;;;;;27.27;46.73;100825.08;1781778;79;21225;-56
2021/07/14 06:52:05;;;;;;;6.55;2.12;;;;;;;27.35;45.22;100827.91;1769664;79;21751;-58
2021/07/14 06:55:12;;;;;;;10.68;2.42;;;;;;;27.43;45.28;100826.80;1773375;79;21710;-58
2021/07/14 06:58:17;;;;;;;10.18;3.00;;;;;;;27.54;45.96;100831.34;1780503;79;21761;-58
2021/07/14 07:01:22;;;;;;;6.80;2.37;;;;;;;27.62;44.73;100827.17;1768469;79;21310;-58
2021/07/14 07:04:29;;;;;;;8.35;2.62;;;;;;;27.71;43.95;100822.12;1760511;81;21226;-57
2021/07/14 07:07:34;;;;;;;6.30;2.10;;;;;;;27.79;44.34;100830.03;1778527;79;21205;-58
2021/07/14 07:10:42;;;;;;;8.33;2.33;;;;;;;27.91;44.22;100823.33;1788754;79;21196;-58
2021/07/14 07:13:50;;;;;;;6.00;1.85;;;;;;;27.98;43.34;100820.52;1801118;79;21864;-58
2021/07/14 07:16:57;;;;;;;4.12;1.80;;;;;;;28.05;41.35;100824.47;1774470;79;21563;-57
2021/07/14 07:20:07;;;;;;;7.12;2.00;;;;;;;28.12;40.81;100827.28;1769881;80;21185;-58
2021/07/14 07:23:13;;;;;;;8.18;2.00;;;;;;;28.19;39.65;100827.86;1782971;79;21240;-59
2021/07/14 07:26:21;;;;;;;8.50;2.00;;;;;;;28.27;41.20;100825.05;1780699;79;21170;-59
2021/07/14 07:29:29;;;;;;;4.97;1.80;;;;;;;28.36;41.94;100812.93;1774296;79;21192;-58
2021/07/14 07:32:36;;;;;;;5.87;2.27;;;;;;;28.42;40.49;100812.34;1770896;79;21226;-57
2021/07/14 07:35:42;;;;;;;10.63;2.17;;;;;;;28.50;39.88;100823.08;1798119;79;21190;-58
2021/07/14 07:38:47;;;;;;;9.08;1.82;;;;;;;28.53;39.31;100814.91;1802607;79;21340;-59
2021/07/14 07:41:57;;;;;;;5.12;2.35;;;;;;;28.60;38.95;100808.99;1800709;79;21788;-58
2021/07/14 07:45:02;;;;;;;3.80;1.85;;;;;;;28.66;38.85;100813.48;1794295;78;21429;-60
2021/07/14 07:48:08;;;;;;;5.37;1.75;;;;;;;28.71;37.21;100800.25;1802060;79;21383;-57
2021/07/14 07:51:16;;;;;;;8.43;1.75;;;;;;;28.77;38.25;100803.88;1801870;78;21734;-58
2021/07/14 07:54:26;;;;;;;7.50;1.90;;;;;;;28.85;37.40;100799.07;1784015;79;21460;-57
2021/07/14 07:57:31;;;;;;;7.78;1.70;;;;;;;28.91;38.45;100803.56;1782724;79;21228;-57
2021/07/14 08:00:38;;;;;;;7.58;1.87;;;;;;;28.99;37.54;100805.23;1794583;79;21415;-57
2021/07/14 08:03:43;;;;;;;7.58;1.82;;;;;;;29.08;37.28;100805.53;1800954;79;21366;-59
2021/07/14 08:06:50;;;;;;;4.80;1.67;;;;;;;29.16;36.96;100800.72;1798147;79;21469;-57
2021/07/14 08:09:56;;;;;;;9.18;1.70;;;;;;;29.22;37.09;100802.38;1782951;79;21295;-57
2021/07/14 08:13:02;;;;;;;4.85;1.92;;;;;;;29.29;37.65;100793.02;1777799;79;21196;-58
2021/07/14 08:16:09;;;;;;;12.13;1.95;;;;;;;29.36;37.52;100792.16;1768756;79;21185;-58
2021/07/14 08:19:16;;;;;;;7.42;1.80;;;;;;;29.42;38.00;100792.40;1770440;80;21582;-59
2021/07/14 08:22:21;;;;;;;5.42;1.72;;;;;;;29.52;36.89;100795.17;1770335;79;21404;-58
2021/07/14 08:25:26;;;;;;;5.03;1.70;;;;;;;29.60;36.76;100792.30;1770828;79;21212;-58
2021/07/14 08:28:31;;;;;;;4.50;2.00;;;;;;;29.65;37.04;100793.72;1773225;79;21264;-58
2021/07/14 08:31:43;;;;;;;4.60;1.87;;;;;;;29.73;36.66;100798.16;1790444;79;21330;-56
2021/07/14 08:34:53;;;;;;;8.30;1.80;;;;;;;29.81;36.05;100791.91;1773364;79;21205;-57
2021/07/14 08:38:00;;;;;;;6.28;2.10;;;;;;;29.84;35.28;100791.34;1786388;79;21576;-57
2021/07/14 08:41:08;;;;;;;4.92;2.50;;;;;;;29.88;35.94;100786.78;1797834;79;21713;-58
2021/07/14 08:44:15;;;;;;;4.55;1.75;;;;;;;29.94;35.27;100786.19;1770011;81;21189;-57
2021/07/14 08:47:24;;;;;;;8.93;2.30;;;;;;;30.00;35.16;100789.25;1772175;79;21216;-58
2021/07/14 08:50:32;;;;;;;6.00;1.55;;;;;;;30.08;34.72;100788.03;1792802;79;21179;-58
2021/07/14 08:53:40;;;;;;;5.05;1.80;;;;;;;30.15;34.89;100785.73;1777004;79;21903;-58
2021/07/14 08:56:47;;;;;;;5.60;2.05;;;;;;;30.21;34.20;100784.57;1771328;79;21192;-57
2021/07/14 08:59:53;;;;;;;3.75;1.65;;;;;;;30.28;34.74;100782.27;1770072;79;21269;-57
2021/07/14 09:02:59;;;;;;;3.85;1.40;;;;;;;30.33;34.19;100777.13;1785178;79;21189;-57
2021/07/14 09:06:08;;;;;;;5.47;2.20;;;;;;;30.38;33.48;100786.98;1786728;79;22017;-60
2021/07/14 09:09:13;;;;;;;6.20;2.12;;;;;;;30.40;33.12;100778.47;1777049;79;21220;-59
2021/07/14 09:12:19;;;;;;;5.00;1.52;;;;;;;30.42;32.75;100777.61;1783421;79;21561;-60
2021/07/14 09:15:31;;;;;;;6.62;1.60;;;;;;;30.53;33.17;100782.58;1769790;79;21200;-59
2021/07/14 09:18:35;;;;;;;3.25;1.37;;;;;;;30.53;33.17;100782.58;1770179;80;21228;-59
2021/07/14 09:21:48;;;;;;;7.58;1.80;;;;;;;30.60;32.98;100783.91;1771038;80;21735;-60
2021/07/14 09:24:58;;;;;;;4.97;1.55;;;;;;;30.68;32.59;100779.61;1770327;80;21221;-59
2021/07/14 09:28:07;;;;;;;6.53;1.45;;;;;;;30.77;32.77;100780.67;1778518;79;21220;-60
2021/07/14 09:31:18;;;;;;;2.25;1.32;;;;;;;30.86;32.19;100785.11;1777219;79;21722;-61
2021/07/14 09:34:38;;;;;;;3.20;1.27;;;;;;;30.92;31.36;100776.84;1801268;79;21209;-59
2021/07/14 09:37:44;;;;;;;4.28;1.50;;;;;;;30.98;31.53;100775.06;1801863;79;21734;-60
2021/07/14 09:40:55;;;;;;;3.58;1.10;;;;;;;31.06;31.96;100769.30;1800260;79;21228;-60
2021/07/14 09:44:03;;;;;;;3.25;1.22;;;;;;;31.09;30.75;100770.97;1779699;79;21601;-60
2021/07/14 09:47:24;;;;;;;7.45;1.75;;;;;;;31.16;31.34;100764.95;1769231;80;21172;-61
2021/07/14 09:50:45;;;;;;;4.05;1.52;;;;;;;31.23;31.06;100766.81;1769159;81;21196;-61
2021/07/14 09:53:52;;;;;;;4.12;1.22;;;;;;;31.31;31.09;100770.42;1769555;80;21200;-61
2021/07/14 09:57:01;;;;;;;8.90;1.60;;;;;;;31.38;30.65;100774.56;1769856;80;21809;-60
2021/07/14 10:00:12;;;;;;;5.05;1.37;;;;;;;31.46;30.53;100774.48;1770957;81;21193;-64
2021/07/14 10:03:34;;;;;;;3.10;1.50;;;;;;;31.53;29.56;100767.84;1770526;80;21351;-57
2021/07/14 10:06:39;;;;;;;4.17;1.32;;;;;;;31.61;30.98;100770.00;1771104;80;21316;-58
2021/07/14 10:09:47;;;;;;;5.65;1.57;;;;;;;31.70;29.83;100772.41;1770655;80;21201;-58
2021/07/14 10:12:53;;;;;;;4.72;1.32;;;;;;;31.75;30.60;100771.77;1796406;79;21355;-59
2021/07/14 10:16:12;;;;;;;4.25;1.42;;;;;;;31.80;30.11;100771.70;1801776;79;21721;-59
2021/07/14 10:19:24;;;;;;;4.75;1.40;;;;;;;31.88;30.02;100769.62;1801897;79;21792;-59
2021/07/14 10:22:31;;;;;;;3.20;1.30;;;;;;;31.97;30.78;100770.59;1801718;79;21225;-58
2021/07/14 10:25:38;;;;;;;3.67;1.47;;;;;;;32.06;30.31;100774.15;1786454;79;21177;-59
2021/07/14 10:28:43;;;;;;;4.05;1.52;;;;;;;32.12;29.43;100773.77;1769715;79;21660;-58
2021/07/14 10:31:48;;;;;;;1.60;1.10;;;;;;;32.18;28.97;100775.35;1770003;81;21252;-58
2021/07/14 10:34:54;;;;;;;4.12;1.70;;;;;;;32.25;28.54;100775.81;1769618;80;21189;-59
2021/07/14 10:38:11;;;;;;;2.52;1.52;;;;;;;32.35;28.98;100776.22;1769230;81;21753;-57
2021/07/14 10:41:17;;;;;;;1.87;1.22;;;;;;;32.45;28.91;100761.30;1763145;80;21289;-59
2021/07/14 10:44:23;;;;;;;4.55;1.80;;;;;;;32.53;28.74;100771.08;1770382;79;21567;-59
2021/07/14 10:47:30;;;;;;;2.60;1.60;;;;;;;32.60;28.48;100772.34;1772459;79;21198;-59
2021/07/14 10:50:37;;;;;;;4.95;1.98;;;;;;;32.68;28.23;100762.30;1770491;80;21249;-59
2021/07/14 10:53:42;;;;;;;3.52;1.60;;;;;;;32.76;28.17;100761.58;1769913;81;21770;-58
2021/07/14 10:56:55;;;;;;;6.72;1.30;;;;;;;32.85;29.39;100763.38;1770021;80;21189;-60
2021/07/14 11:00:01;;;;;;;7.10;1.57;;;;;;;32.98;29.15;100762.55;1770141;80;21193;-59
2021/07/14 11:03:06;;;;;;;5.03;2.02;;;;;;;33.10;28.67;100764.88;1770839;79;21225;-59
2021/07/14 11:06:15;;;;;;;3.27;1.47;;;;;;;33.12;28.71;100762.00;1765273;79;21212;-59
2021/07/14 11:09:47;;;;;;;4.03;1.32;;;;;;;33.18;29.05;100762.14;1768666;79;21201;-59
2021/07/14 11:12:52;;;;;;;;;;;;;;;33.28;27.95;100760.48;1802261;79;21259;-59
2021/07/14 11:15:57;;;;;;;3.25;1.10;;;;;;;33.35;28.51;100762.33;1801277;78;20227;-60
2021/07/14 11:19:18;;;;;;;5.25;1.50;;;;;;;33.43;27.51;100757.11;1801259;78;21204;-59
2021/07/14 11:22:49;;;;;;;7.17;1.60;;;;;;;33.49;27.05;100752.98;1792318;78;21276;-59
2021/07/14 11:25:56;;;;;;;5.53;1.80;;;;;;;33.55;28.16;100745.45;1795867;79;21306;-60
2021/07/14 11:29:22;;;;;;;5.12;1.37;;;;;;;33.66;27.88;100746.05;1800914;79;21351;-56
2021/07/14 11:32:43;;;;;;;;;;;;;;;33.69;27.77;100739.16;1804122;79;21197;-58
2021/07/14 11:35:55;;;;;;;3.50;1.40;;;;;;;33.75;27.43;100741.28;1802182;79;20202;-57
2021/07/14 11:39:03;;;;;;;6.22;1.52;;;;;;;33.80;28.33;100743.43;1802351;79;21189;-58
2021/07/14 11:42:25;;;;;;;5.45;1.85;;;;;;;33.83;28.11;100741.94;1802919;79;21741;-58
2021/07/14 11:45:44;;;;;;;6.53;1.57;;;;;;;33.84;27.03;100741.61;1801791;79;21177;-59
2021/07/14 11:48:55;;;;;;;1.95;1.32;;;;;;;33.87;28.01;100735.89;1801685;79;21218;-58
2021/07/14 11:52:04;;;;;;;4.03;1.60;;;;;;;33.94;27.40;100736.30;1802513;79;21205;-59
2021/07/14 11:55:43;;;;;;;4.50;1.70;;;;;;;33.99;26.92;100733.33;1801478;79;21407;-58
2021/07/14 11:58:59;;;;;;;5.22;1.50;;;;;;;34.04;26.27;100731.78;1802223;79;21919;-58
2021/07/14 12:02:07;;;;;;;4.80;1.35;;;;;;;34.04;25.92;100724.11;1802483;79;21378;-58
2021/07/14 12:05:14;;;;;;;8.85;1.70;;;;;;;34.06;27.41;100724.60;1802290;79;21395;-59
2021/07/14 12:08:21;;;;;;;3.58;1.70;;;;;;;34.08;27.76;100723.70;1802750;79;21366;-58
2021/07/14 12:11:31;;;;;;;3.35;1.50;;;;;;;34.09;26.98;100721.14;1802330;78;21205;-59
2021/07/14 12:14:46;;;;;;;3.50;1.47;;;;;;;34.07;26.50;100721.19;1802197;78;21190;-60
2021/07/14 12:17:54;;;;;;;7.67;1.87;;;;;;;34.04;27.20;100713.31;1802794;78;21214;-60
2021/07/14 12:21:01;;;;;;;5.37;1.42;;;;;;;33.98;27.38;100715.43;1802199;78;21378;-58
2021/07/14 12:24:12;;;;;;;2.83;1.27;;;;;;;33.91;28.02;100706.53;1802450;79;21828;-59
2021/07/14 12:27:25;;;;;;;5.25;1.52;;;;;;;33.83;26.61;100706.42;1780501;79;21905;-59
2021/07/14 12:30:33;;;;;;;2.92;1.30;;;;;;;33.74;27.01;100714.05;1720382;82;21189;-59
2021/07/14 12:33:39;;;;;;;5.25;1.65;;;;;;;33.67;27.51;100706.53;1735493;82;21220;-58
2021/07/14 12:36:50;;;;;;;5.08;1.57;;;;;;;33.61;27.37;100699.30;1721893;83;21410;-58
2021/07/14 12:39:56;;;;;;;;;;;;;;;33.49;26.52;100704.11;1710720;83;21367;-58
2021/07/14 12:43:13;;;;;;;4.62;1.50;;;;;;;33.41;26.59;100704.90;1721395;82;20207;-58
2021/07/14 12:46:19;;;;;;;6.15;1.70;;;;;;;33.35;27.42;100697.59;1703495;82;21367;-55
2021/07/14 12:49:27;;;;;;;3.55;1.25;;;;;;;33.31;26.86;100693.73;1697969;84;21212;-57
2021/07/14 12:52:36;;;;;;;5.85;1.50;;;;;;;33.29;27.71;100696.05;1698714;84;21189;-56
2021/07/14 12:55:43;;;;;;;2.02;1.40;;;;;;;33.30;27.71;100694.30;1698413;84;21343;-56
2021/07/14 12:58:50;;;;;;;4.72;1.52;;;;;;;33.30;26.79;100689.22;1698385;84;21371;-59
2021/07/14 13:01:55;;;;;;;2.92;1.42;;;;;;;33.26;26.67;100694.70;1698062;84;21206;-57
2021/07/14 13:05:04;;;;;;;2.45;1.40;;;;;;;33.21;27.01;100683.45;1710092;82;21367;-56
2021/07/14 13:08:19;;;;;;;3.65;1.30;;;;;;;33.20;27.88;100681.78;1706028;84;21227;-56
2021/07/14 13:11:24;;;;;;;2.12;1.42;;;;;;;33.17;28.06;100684.41;1721483;83;21379;-56
2021/07/14 13:14:30;;;;;;;7.17;1.55;;;;;;;33.15;27.76;100683.88;1705964;83;21232;-57
2021/07/14 13:17:45;;;;;;;2.12;1.30;;;;;;;33.12;28.02;100683.95;1721801;83;21261;-57
2021/07/14 13:20:59;;;;;;;3.58;1.62;;;;;;;33.09;28.35;100679.48;1706925;80;21239;-56
2021/07/14 13:24:13;;;;;;;2.55;1.30;;;;;;;33.07;29.06;100681.78;1764890;81;21317;-57
2021/07/14 13:27:26;;;;;;;4.08;1.60;;;;;;;33.03;27.78;100681.58;1771377;80;21284;-57
2021/07/14 13:30:38;;;;;;;5.87;1.70;;;;;;;33.01;28.30;100678.80;1770763;81;21217;-57
2021/07/14 13:33:53;;;;;;;3.08;1.40;;;;;;;33.00;27.77;100669.44;1770572;81;21220;-57
2021/07/14 13:37:03;;;;;;;5.80;1.42;;;;;;;33.00;27.58;100673.70;1771483;80;21855;-57
2021/07/14 13:40:33;;;;;;;3.67;1.60;;;;;;;32.96;27.97;100668.41;1770842;80;21220;-56
2021/07/14 13:44:01;;;;;;;3.70;1.47;;;;;;;32.96;28.94;100668.98;1763961;81;21324;-55
2021/07/14 13:47:12;;;;;;;5.22;1.27;;;;;;;32.96;29.30;100664.16;1772882;79;21181;-55
2021/07/14 13:50:18;;;;;;;5.12;1.65;;;;;;;32.96;29.27;100668.41;1734888;82;21822;-56
2021/07/14 13:53:23;;;;;;;3.08;1.30;;;;;;;32.94;28.86;100672.14;1770512;80;21809;-55
2021/07/14 13:56:36;;;;;;;4.55;1.62;;;;;;;32.92;28.43;100663.09;1734978;82;21215;-57
2021/07/14 13:59:54;;;;;;;3.62;1.45;;;;;;;32.94;28.23;100664.19;1770467;80;21237;-54
2021/07/14 14:03:08;;;;;;;4.78;1.60;;;;;;;32.91;28.36;100657.17;1735227;82;21612;-56
2021/07/14 14:06:17;;;;;;;5.47;1.60;;;;;;;32.85;27.92;100654.16;1792755;79;21339;-54
2021/07/14 14:09:28;;;;;;;12.85;10.65;;;;;;;32.81;28.72;100658.77;1779188;79;21205;-54
2021/07/14 14:13:01;;;;;;;7.00;2.83;;;;;;;32.79;28.61;100656.81;1769545;80;21244;-55
2021/07/14 14:16:07;;;;;;;10.82;7.15;;;;;;;32.78;28.66;100656.56;1769617;80;21558;-56
2021/07/14 14:19:16;;;;;;;3.10;2.12;;;;;;;32.77;29.19;100656.31;1770020;79;21204;-56
2021/07/14 14:22:24;;;;;;;4.00;1.67;;;;;;;32.78;28.93;100657.98;1780531;78;21208;-55
2021/07/14 14:25:36;;;;;;;2.40;1.47;;;;;;;32.79;28.58;100651.14;1789378;79;21308;-55
2021/07/14 14:28:38;;;;;;;4.87;1.45;;;;;;;32.81;29.15;100654.50;1802010;79;21908;-55
2021/07/14 14:31:46;;;;;;;6.62;1.75;;;;;;;32.80;28.91;100650.57;1774534;79;21458;-55
2021/07/14 14:34:54;;;;;;;6.25;2.12;;;;;;;32.82;29.56;100653.94;1790153;79;21142;-55
2021/07/14 14:38:01;;;;;;;5.35;1.72;;;;;;;32.85;29.84;100663.23;1783705;79;21209;-57
2021/07/14 14:41:07;;;;;;;2.75;1.67;;;;;;;32.88;30.17;100659.22;1789753;79;21162;-57
2021/07/14 14:44:19;;;;;;;3.60;1.60;;;;;;;32.92;29.75;100657.42;1788440;79;21848;-56